createdAt,value
2023-10-23T00:00:27.601Z,2.00
2023-10-23T00:02:32.412Z,2.20
2023-10-23T00:04:37.489Z,2.00
2023-10-23T00:06:43.591Z,1.80
2023-10-23T00:08:48.344Z,3.00
2023-10-23T00:10:54.454Z,2.50
2023-10-23T00:12:59.119Z,2.20
2023-10-23T00:15:04.128Z,2.00
2023-10-23T00:17:08.801Z,2.30
2023-10-23T00:19:13.997Z,2.00
2023-10-23T00:21:19.251Z,2.30
2023-10-23T00:23:24.998Z,2.20
2023-10-23T00:25:29.664Z,2.50
2023-10-23T00:27:34.478Z,2.20
2023-10-23T00:29:39.333Z,2.10
2023-10-23T00:31:44.062Z,2.60
2023-10-23T00:33:48.929Z,2.20
2023-10-23T00:35:53.671Z,2.10
2023-10-23T00:37:58.350Z,2.40
2023-10-23T00:40:03.171Z,2.10
2023-10-23T00:42:08.082Z,1.90
2023-10-23T00:44:13.901Z,2.30
2023-10-23T00:46:21.915Z,2.10
2023-10-23T00:48:27.833Z,2.10
2023-10-23T00:50:32.686Z,2.20
2023-10-23T00:52:37.829Z,2.20
2023-10-23T00:54:46.563Z,2.20
2023-10-23T00:56:51.812Z,1.90
2023-10-23T00:58:58.529Z,2.10
2023-10-23T01:01:05.073Z,2.20
2023-10-23T01:03:10.524Z,2.20
2023-10-23T01:05:15.330Z,2.00
2023-10-23T01:07:20.100Z,2.10
2023-10-23T01:09:24.737Z,2.00
2023-10-23T01:11:29.695Z,2.20
2023-10-23T01:13:34.549Z,2.10
2023-10-23T01:15:42.152Z,2.00
2023-10-23T01:17:46.942Z,2.10
2023-10-23T01:19:51.744Z,2.00
2023-10-23T01:21:56.458Z,1.80
2023-10-23T01:24:01.972Z,1.90
2023-10-23T01:26:06.599Z,1.80
2023-10-23T01:28:11.313Z,1.90
2023-10-23T01:30:16.032Z,1.90
2023-10-23T01:32:21.110Z,2.10
2023-10-23T01:34:26.011Z,2.20
2023-10-23T01:36:30.729Z,2.10
2023-10-23T01:38:35.447Z,1.80
2023-10-23T01:40:40.810Z,2.00
2023-10-23T01:42:47.091Z,2.00
2023-10-23T01:44:51.931Z,2.00
2023-10-23T01:46:56.624Z,2.00
2023-10-23T01:49:01.307Z,1.90
2023-10-23T01:51:08.946Z,2.10
2023-10-23T01:53:13.658Z,1.80
2023-10-23T01:55:19.104Z,1.70
2023-10-23T01:57:24.227Z,1.90
2023-10-23T01:59:28.926Z,2.00
2023-10-23T02:01:33.609Z,2.20
2023-10-23T02:03:38.373Z,2.00
2023-10-23T02:05:43.065Z,2.30
2023-10-23T02:07:47.770Z,2.10
2023-10-23T02:09:52.507Z,2.20
2023-10-23T02:11:57.337Z,2.20
2023-10-23T02:14:02.043Z,1.90
2023-10-23T02:16:07.169Z,1.80
2023-10-23T02:18:11.975Z,1.80
2023-10-23T02:20:16.872Z,2.40
2023-10-23T02:22:21.618Z,2.00
2023-10-23T02:24:27.532Z,1.70
2023-10-23T02:26:32.907Z,1.90
2023-10-23T02:28:37.677Z,1.80
2023-10-23T02:30:58.897Z,2.10
2023-10-23T02:33:03.846Z,1.60
2023-10-23T02:35:09.523Z,2.10
2023-10-23T02:37:14.283Z,1.80
2023-10-23T02:39:19.071Z,2.00
2023-10-23T02:41:23.941Z,2.00
2023-10-23T02:43:28.685Z,1.80
2023-10-23T02:45:34.914Z,1.80
2023-10-23T02:47:40.122Z,1.80
2023-10-23T02:49:45.548Z,1.80
2023-10-23T02:51:50.464Z,2.00
2023-10-23T02:53:55.127Z,2.00
2023-10-23T02:55:59.780Z,1.90
2023-10-23T02:58:06.297Z,1.90
2023-10-23T03:00:13.181Z,2.20
2023-10-23T03:02:19.280Z,2.50
2023-10-23T03:04:24.244Z,2.00
2023-10-23T03:06:29.171Z,1.90
2023-10-23T03:08:36.699Z,2.00
2023-10-23T03:10:41.534Z,2.10
2023-10-23T03:12:46.329Z,2.30
2023-10-23T03:14:51.050Z,2.10
2023-10-23T03:16:55.918Z,1.90
2023-10-23T03:19:00.718Z,1.80
2023-10-23T03:21:05.580Z,2.00
2023-10-23T03:23:10.854Z,2.00
2023-10-23T03:25:15.613Z,2.10
2023-10-23T03:27:23.387Z,1.90
2023-10-23T03:29:28.090Z,2.20
2023-10-23T03:31:33.684Z,2.40
2023-10-23T03:33:38.392Z,2.30
2023-10-23T03:35:45.308Z,2.00
2023-10-23T03:37:50.019Z,2.10
2023-10-23T03:39:55.013Z,1.80
2023-10-23T03:41:59.820Z,2.00
2023-10-23T03:44:04.683Z,1.80
2023-10-23T03:46:09.512Z,2.10
2023-10-23T03:48:15.654Z,2.00
2023-10-23T03:50:20.490Z,2.10
2023-10-23T03:52:25.254Z,2.40
2023-10-23T03:54:30.007Z,2.10
2023-10-23T03:56:35.605Z,1.90
2023-10-23T03:58:40.302Z,2.10
2023-10-23T04:00:45.076Z,2.00
2023-10-23T04:02:49.865Z,2.00
2023-10-23T04:04:54.696Z,2.10
2023-10-23T04:06:59.394Z,2.10
2023-10-23T04:09:04.193Z,2.40
2023-10-23T04:11:08.960Z,2.30
2023-10-23T04:13:13.669Z,2.30
2023-10-23T04:15:18.467Z,2.40
2023-10-23T04:17:23.141Z,2.60
2023-10-23T04:19:27.781Z,2.10
2023-10-23T04:21:32.527Z,2.00
2023-10-23T04:23:37.795Z,1.90
2023-10-23T04:25:42.647Z,1.90
2023-10-23T04:27:47.749Z,2.00
2023-10-23T04:29:52.495Z,2.20
2023-10-23T04:31:57.184Z,1.90
2023-10-23T04:34:01.924Z,2.30
2023-10-23T04:36:07.230Z,2.10
2023-10-23T04:38:14.914Z,1.90
2023-10-23T04:40:19.533Z,2.10
2023-10-23T04:42:24.380Z,2.10
2023-10-23T04:44:29.132Z,2.30
2023-10-23T04:46:34.298Z,2.20
2023-10-23T04:48:39.087Z,2.40
2023-10-23T04:50:43.774Z,2.30
2023-10-23T04:52:48.481Z,2.60
2023-10-23T04:54:53.467Z,2.30
2023-10-23T04:56:58.080Z,2.60
2023-10-23T04:59:02.855Z,2.30
2023-10-23T05:01:15.795Z,2.40
2023-10-23T05:03:20.578Z,2.30
2023-10-23T05:05:25.257Z,2.30
2023-10-23T05:07:29.953Z,2.30
2023-10-23T05:09:34.631Z,2.50
2023-10-23T05:11:39.356Z,2.40
2023-10-23T05:13:44.053Z,2.30
2023-10-23T05:15:48.772Z,2.60
2023-10-23T05:17:53.499Z,2.70
2023-10-23T05:19:58.444Z,2.50
2023-10-23T05:22:03.162Z,2.30
2023-10-23T05:24:09.203Z,3.00
2023-10-23T05:26:13.889Z,2.50
2023-10-23T05:28:18.595Z,2.60
2023-10-23T05:30:23.386Z,2.80
2023-10-23T05:32:28.888Z,2.60
2023-10-23T05:34:33.709Z,2.70
2023-10-23T05:36:38.476Z,2.70
2023-10-23T05:38:43.234Z,2.80
2023-10-23T05:40:48.088Z,2.70
2023-10-23T05:42:52.805Z,3.30
2023-10-23T05:44:57.477Z,2.90
2023-10-23T05:47:02.238Z,3.30
2023-10-23T05:49:07.100Z,3.50
2023-10-23T05:51:11.780Z,3.60
2023-10-23T05:53:16.452Z,4.00
2023-10-23T05:55:21.517Z,3.70
2023-10-23T05:57:26.615Z,4.10
2023-10-23T05:59:33.354Z,4.30
2023-10-23T06:01:38.969Z,4.60
2023-10-23T06:03:44.189Z,4.30
2023-10-23T06:05:49.425Z,4.30
2023-10-23T06:07:55.129Z,4.40
2023-10-23T06:10:00.765Z,4.70
2023-10-23T06:12:06.622Z,4.20
2023-10-23T06:14:11.278Z,4.60
2023-10-23T06:16:16.278Z,4.80
2023-10-23T06:18:21.047Z,4.60
2023-10-23T06:20:25.761Z,4.60
2023-10-23T06:22:30.412Z,4.50
2023-10-23T06:24:35.174Z,4.60
2023-10-23T06:26:41.937Z,4.50
2023-10-23T06:28:48.457Z,5.00
2023-10-23T06:30:53.353Z,4.80
2023-10-23T06:32:58.138Z,6.50
2023-10-23T06:35:02.915Z,5.90
2023-10-23T06:37:07.677Z,5.50
2023-10-23T06:39:12.384Z,4.90
2023-10-23T06:41:17.132Z,4.90
2023-10-23T06:43:22.277Z,4.80
2023-10-23T06:45:42.154Z,4.70
2023-10-23T06:47:52.296Z,5.10
2023-10-23T06:49:57.239Z,5.10
2023-10-23T06:52:01.937Z,4.80
2023-10-23T06:54:07.107Z,4.80
2023-10-23T06:56:11.858Z,4.90
2023-10-23T06:58:16.831Z,5.00
2023-10-23T07:00:22.270Z,4.90
2023-10-23T07:02:27.053Z,4.60
2023-10-23T07:04:32.084Z,4.90
2023-10-23T07:06:37.149Z,4.60
2023-10-23T07:08:41.880Z,4.60
2023-10-23T07:10:46.757Z,4.40
2023-10-23T07:12:51.542Z,4.70
2023-10-23T07:14:56.351Z,4.90
2023-10-23T07:17:01.182Z,7.80
2023-10-23T07:19:06.397Z,6.70
2023-10-23T07:21:11.519Z,6.40
2023-10-23T07:23:16.816Z,4.70
2023-10-23T07:25:21.489Z,5.10
2023-10-23T07:27:27.236Z,5.40
2023-10-23T07:29:33.429Z,5.60
2023-10-23T07:31:39.511Z,6.20
2023-10-23T07:33:44.406Z,6.00
2023-10-23T07:35:53.296Z,7.10
2023-10-23T07:37:59.046Z,7.70
2023-10-23T07:40:06.368Z,7.70
2023-10-23T07:42:11.529Z,9.00
2023-10-23T07:44:16.363Z,8.50
2023-10-23T07:46:21.302Z,8.10
2023-10-23T07:48:28.718Z,7.20
2023-10-23T07:50:35.576Z,7.60
2023-10-23T07:52:40.265Z,7.50
2023-10-23T07:54:44.985Z,8.40
2023-10-23T07:56:49.818Z,7.70
2023-10-23T07:58:55.528Z,7.90
2023-10-23T08:01:06.496Z,7.50
2023-10-23T08:03:15.538Z,8.00
2023-10-23T08:05:20.481Z,8.40
2023-10-23T08:07:26.736Z,8.00
2023-10-23T08:09:31.496Z,8.00
2023-10-23T08:11:36.328Z,6.80
2023-10-23T08:13:41.956Z,8.40
2023-10-23T08:15:46.791Z,8.20
2023-10-23T08:17:51.739Z,8.10
2023-10-23T08:19:58.166Z,8.40
2023-10-23T08:22:03.121Z,8.50
2023-10-23T08:24:08.934Z,8.40
2023-10-23T08:26:14.067Z,6.90
2023-10-23T08:28:18.926Z,8.00
2023-10-23T08:30:23.796Z,7.80
2023-10-23T08:32:37.360Z,9.30
2023-10-23T08:34:51.322Z,14.00
2023-10-23T08:36:59.204Z,12.70
2023-10-23T08:39:04.697Z,13.40
2023-10-23T08:41:12.810Z,9.80
2023-10-23T08:43:17.867Z,10.20
2023-10-23T08:45:22.691Z,7.20
2023-10-23T08:47:27.624Z,9.20
2023-10-23T08:49:32.933Z,6.70
2023-10-23T08:51:41.809Z,6.80
2023-10-23T08:54:09.249Z,5.90
2023-10-23T08:56:15.847Z,6.90
2023-10-23T08:58:22.988Z,6.60
2023-10-23T09:00:27.902Z,6.40
2023-10-23T09:02:36.002Z,5.70
2023-10-23T09:04:57.248Z,6.30
2023-10-23T09:07:02.166Z,6.70
2023-10-23T09:09:08.156Z,7.00
2023-10-23T09:11:13.122Z,6.30
2023-10-23T09:13:17.990Z,6.50
2023-10-23T09:15:23.785Z,6.20
2023-10-23T09:17:29.565Z,7.20
2023-10-23T09:19:35.773Z,6.60
2023-10-23T09:21:41.904Z,6.40
2023-10-23T09:23:54.848Z,6.20
2023-10-23T09:26:02.600Z,5.80
2023-10-23T09:28:12.217Z,6.40
2023-10-23T09:30:17.766Z,6.40
2023-10-23T09:32:22.539Z,5.70
2023-10-23T09:34:27.559Z,5.80
2023-10-23T09:36:32.328Z,5.80
2023-10-23T09:38:37.173Z,5.50
2023-10-23T09:40:41.940Z,5.30
2023-10-23T09:42:46.797Z,6.00
2023-10-23T09:44:53.353Z,6.40
2023-10-23T09:46:59.512Z,5.70
2023-10-23T09:49:06.356Z,6.40
2023-10-23T09:51:14.889Z,6.00
2023-10-23T09:53:20.563Z,5.10
2023-10-23T09:55:28.811Z,5.90
2023-10-23T09:57:38.946Z,5.70
2023-10-23T09:59:47.547Z,6.10
2023-10-23T10:01:56.854Z,5.60
2023-10-23T10:04:09.065Z,6.20
2023-10-23T10:06:18.244Z,5.70
2023-10-23T10:08:24.671Z,5.80
2023-10-23T10:10:30.336Z,5.80
2023-10-23T10:12:36.548Z,5.90
2023-10-23T10:14:43.044Z,6.10
2023-10-23T10:16:47.892Z,5.10
2023-10-23T10:18:53.018Z,5.60
2023-10-23T10:21:00.820Z,4.90
2023-10-23T10:23:09.425Z,4.80
2023-10-23T10:25:15.122Z,4.80
2023-10-23T10:27:20.218Z,4.90
2023-10-23T10:29:29.013Z,4.70
2023-10-23T10:32:03.115Z,4.40
2023-10-23T10:34:25.641Z,4.20
2023-10-23T10:36:46.716Z,4.00
2023-10-23T10:38:53.037Z,4.00
2023-10-23T10:41:02.440Z,3.90
2023-10-23T10:43:09.530Z,3.60
2023-10-23T10:45:16.850Z,3.40
2023-10-23T10:47:21.807Z,3.10
2023-10-23T10:49:33.531Z,2.90
2023-10-23T10:51:38.293Z,2.90
2023-10-23T10:53:43.128Z,2.50
2023-10-23T10:55:47.845Z,2.80
2023-10-23T10:57:55.589Z,2.20
2023-10-23T11:00:01.622Z,2.30
2023-10-23T11:02:08.448Z,2.00
2023-10-23T11:04:13.868Z,2.00
2023-10-23T11:06:18.714Z,2.30
2023-10-23T11:08:23.418Z,2.10
2023-10-23T11:10:28.272Z,2.30
2023-10-23T11:12:33.346Z,1.90
2023-10-23T11:14:38.041Z,1.70
2023-10-23T11:16:42.903Z,1.80
2023-10-23T11:18:47.744Z,1.70
2023-10-23T11:20:56.391Z,2.10
2023-10-23T11:23:01.112Z,2.40
2023-10-23T11:25:06.718Z,2.10
2023-10-23T11:27:11.625Z,2.70
2023-10-23T11:29:18.507Z,2.80
2023-10-23T11:31:24.630Z,2.60
2023-10-23T11:33:29.544Z,2.90
2023-10-23T11:35:36.924Z,2.80
2023-10-23T11:37:42.585Z,3.50
2023-10-23T11:39:49.913Z,3.40
2023-10-23T11:41:58.519Z,3.10
2023-10-23T11:44:03.589Z,2.80
2023-10-23T11:46:08.643Z,2.50
2023-10-23T11:48:14.079Z,2.80
2023-10-23T11:50:21.983Z,2.80
2023-10-23T11:52:27.389Z,2.90
2023-10-23T11:54:32.353Z,2.80
2023-10-23T11:56:38.032Z,3.00
2023-10-23T11:58:47.057Z,2.90
2023-10-23T12:00:52.299Z,2.80
2023-10-23T12:02:59.364Z,2.90
2023-10-23T12:05:05.362Z,3.10
2023-10-23T12:07:10.299Z,2.50
2023-10-23T12:09:15.266Z,2.30
2023-10-23T12:11:20.211Z,2.10
2023-10-23T12:13:25.099Z,2.40
2023-10-23T12:15:30.045Z,2.20
2023-10-23T12:17:34.860Z,2.20
2023-10-23T12:19:39.767Z,2.10
2023-10-23T12:21:45.189Z,2.10
2023-10-23T12:23:50.013Z,2.10
2023-10-23T12:25:54.635Z,2.10
2023-10-23T12:27:59.531Z,1.90
2023-10-23T12:30:09.128Z,1.80
2023-10-23T12:33:16.809Z,2.00
2023-10-23T12:34:42.189Z,2.30
2023-10-23T12:36:46.953Z,2.00
2023-10-23T12:38:51.795Z,2.10
2023-10-23T12:40:56.643Z,2.30
2023-10-23T12:43:01.433Z,2.30
2023-10-23T12:45:07.442Z,2.60
2023-10-23T12:47:12.377Z,2.30
2023-10-23T12:49:17.151Z,2.10
2023-10-23T12:51:21.902Z,1.70
2023-10-23T12:53:26.718Z,1.90
2023-10-23T12:55:31.641Z,1.60
2023-10-23T12:57:36.326Z,1.70
2023-10-23T12:59:41.186Z,1.40
2023-10-23T13:01:45.982Z,1.50
2023-10-23T13:03:50.871Z,1.30
2023-10-23T13:05:55.765Z,1.80
2023-10-23T13:08:00.440Z,1.70
2023-10-23T13:10:06.205Z,1.80
2023-10-23T13:12:11.174Z,1.80
2023-10-23T13:14:16.529Z,2.10
2023-10-23T13:16:21.357Z,2.00
2023-10-23T13:18:26.118Z,2.20
2023-10-23T13:21:30.475Z,2.20
2023-10-23T13:22:55.639Z,2.60
2023-10-23T13:25:00.707Z,2.80
2023-10-23T13:27:05.954Z,2.70
2023-10-23T13:29:10.695Z,2.80
2023-10-23T13:31:15.690Z,3.00
2023-10-23T13:33:20.402Z,3.00
2023-10-23T13:35:25.087Z,2.90
2023-10-23T13:37:29.869Z,3.10
2023-10-23T13:39:34.608Z,3.00
2023-10-23T13:41:39.328Z,3.30
2023-10-23T13:43:44.330Z,3.50
2023-10-23T13:45:49.309Z,3.50
2023-10-23T13:47:56.175Z,3.70
2023-10-23T13:50:02.995Z,3.50
2023-10-23T13:52:08.067Z,3.40
2023-10-23T13:54:12.835Z,3.40
2023-10-23T13:56:17.571Z,2.90
2023-10-23T13:58:22.335Z,2.80
2023-10-23T14:00:27.154Z,2.80
2023-10-23T14:02:31.908Z,2.70
2023-10-23T14:04:36.800Z,3.10
2023-10-23T14:06:41.979Z,3.40
2023-10-23T14:09:41.566Z,3.40
2023-10-23T14:11:54.578Z,3.60
2023-10-23T14:13:36.301Z,4.00
2023-10-23T14:15:41.018Z,4.10
2023-10-23T14:17:45.846Z,3.70
2023-10-23T14:19:50.652Z,3.80
2023-10-23T14:21:55.394Z,4.00
2023-10-23T14:24:00.115Z,4.20
2023-10-23T14:26:06.741Z,4.40
2023-10-23T14:28:13.259Z,4.10
2023-10-23T14:30:18.181Z,4.00
2023-10-23T14:32:23.059Z,4.30
2023-10-23T14:34:28.461Z,4.40
2023-10-23T14:36:33.311Z,4.40
2023-10-23T14:38:38.046Z,4.50
2023-10-23T14:40:42.820Z,4.00
2023-10-23T14:42:47.521Z,4.00
2023-10-23T14:44:52.291Z,4.20
2023-10-23T14:46:57.230Z,4.00
2023-10-23T14:49:05.142Z,4.10
2023-10-23T14:51:09.937Z,4.40
2023-10-23T14:53:14.654Z,4.30
2023-10-23T14:55:19.600Z,4.00
2023-10-23T14:57:24.317Z,3.60
2023-10-23T14:59:29.143Z,3.80
2023-10-23T15:01:33.957Z,3.80
2023-10-23T15:03:38.823Z,4.00
2023-10-23T15:05:43.609Z,4.00
2023-10-23T15:07:48.281Z,3.90
2023-10-23T15:09:52.990Z,4.00
2023-10-23T15:11:57.761Z,4.00
2023-10-23T15:14:02.633Z,4.00
2023-10-23T15:16:08.067Z,3.90
2023-10-23T15:18:12.902Z,3.90
2023-10-23T15:20:18.021Z,5.10
2023-10-23T15:22:22.907Z,4.80
2023-10-23T15:24:27.803Z,4.70
2023-10-23T15:26:32.571Z,5.80
2023-10-23T15:28:37.721Z,6.10
2023-10-23T15:30:42.594Z,5.30
2023-10-23T15:32:47.410Z,4.50
2023-10-23T15:34:52.250Z,4.80
2023-10-23T15:36:56.964Z,4.70
2023-10-23T15:39:02.249Z,4.60
2023-10-23T15:41:09.067Z,5.90
2023-10-23T15:43:15.653Z,6.20
2023-10-23T15:45:20.449Z,4.80
2023-10-23T15:47:25.860Z,5.20
2023-10-23T15:49:30.637Z,4.60
2023-10-23T15:51:35.322Z,4.90
2023-10-23T15:53:40.491Z,4.80
2023-10-23T15:55:47.522Z,4.60
2023-10-23T15:57:52.395Z,4.50
2023-10-23T15:59:57.197Z,4.50
2023-10-23T16:02:02.135Z,4.60
2023-10-23T16:04:08.627Z,4.50
2023-10-23T16:06:13.487Z,4.80
2023-10-23T16:08:18.864Z,4.60
2023-10-23T16:10:25.952Z,4.40
2023-10-23T16:12:31.397Z,4.20
2023-10-23T16:14:49.851Z,4.00
2023-10-23T16:16:58.932Z,3.70
2023-10-23T16:19:05.127Z,3.80
2023-10-23T16:21:12.087Z,3.60
2023-10-23T16:23:17.152Z,3.80
2023-10-23T16:25:22.190Z,3.70
2023-10-23T16:27:27.072Z,3.80
2023-10-23T16:29:32.133Z,3.70
2023-10-23T16:31:37.802Z,3.80
2023-10-23T16:33:42.857Z,4.20
2023-10-23T16:35:47.690Z,4.20
2023-10-23T16:37:54.345Z,4.10
2023-10-23T16:39:59.754Z,4.10
2023-10-23T16:42:05.465Z,4.50
2023-10-23T16:44:13.066Z,4.50
2023-10-23T16:46:17.998Z,4.40
2023-10-23T16:48:23.534Z,4.30
2023-10-23T16:50:30.089Z,4.30
2023-10-23T16:52:35.036Z,4.20
2023-10-23T16:54:40.116Z,4.10
2023-10-23T16:56:45.432Z,5.20
2023-10-23T16:58:50.990Z,4.90
2023-10-23T17:00:56.862Z,4.90
2023-10-23T17:03:02.512Z,4.60
2023-10-23T17:05:10.675Z,4.50
2023-10-23T17:07:17.236Z,4.60
2023-10-23T17:09:23.880Z,4.60
2023-10-23T17:11:30.680Z,4.20
2023-10-23T17:13:36.723Z,3.80
2023-10-23T17:15:45.463Z,3.70
2023-10-23T17:17:55.249Z,3.60
2023-10-23T17:20:01.741Z,3.80
2023-10-23T17:22:08.136Z,3.70
2023-10-23T17:24:14.591Z,4.00
2023-10-23T17:26:21.024Z,3.90
2023-10-23T17:28:28.042Z,3.90
2023-10-23T17:30:35.501Z,4.20
2023-10-23T17:32:41.677Z,4.10
2023-10-23T17:34:48.390Z,4.60
2023-10-23T17:36:54.806Z,4.20
2023-10-23T17:39:01.722Z,4.50
2023-10-23T17:41:15.913Z,4.80
2023-10-23T17:43:22.347Z,4.90
2023-10-23T17:45:28.037Z,5.10
2023-10-23T17:47:33.765Z,4.90
2023-10-23T17:49:40.970Z,5.40
2023-10-23T17:51:47.840Z,4.80
2023-10-23T17:54:04.952Z,5.60
2023-10-23T17:56:13.200Z,5.30
2023-10-23T17:58:21.101Z,6.00
2023-10-23T18:00:30.573Z,5.90
2023-10-23T18:02:36.768Z,5.50
2023-10-23T18:04:47.540Z,5.40
2023-10-23T18:06:53.953Z,4.90
2023-10-23T18:09:01.198Z,4.80
2023-10-23T18:11:08.079Z,5.10
2023-10-23T18:13:15.643Z,5.60
2023-10-23T18:15:23.503Z,5.70
2023-10-23T18:17:29.723Z,5.90
2023-10-23T18:19:35.943Z,5.70
2023-10-23T18:21:42.660Z,5.80
2023-10-23T18:23:49.100Z,6.00
2023-10-23T18:26:01.277Z,5.90
2023-10-23T18:28:09.340Z,6.60
2023-10-23T18:30:21.495Z,6.40
2023-10-23T18:32:27.280Z,5.70
2023-10-23T18:34:36.751Z,6.30
2023-10-23T18:36:45.457Z,6.30
2023-10-23T18:38:53.973Z,6.20
2023-10-23T18:41:01.395Z,5.70
2023-10-23T18:43:07.053Z,5.80
2023-10-23T18:45:15.075Z,6.10
2023-10-23T18:47:24.384Z,6.60
2023-10-23T18:49:34.883Z,5.70
2023-10-23T18:51:41.136Z,5.50
2023-10-23T18:53:47.128Z,5.40
2023-10-23T18:55:56.121Z,6.40
2023-10-23T18:58:03.945Z,6.00
2023-10-23T19:00:13.303Z,6.40
2023-10-23T19:02:20.437Z,5.60
2023-10-23T19:04:27.768Z,6.00
2023-10-23T19:06:39.681Z,5.70
2023-10-23T19:08:45.550Z,5.90
2023-10-23T19:10:51.128Z,6.00
2023-10-23T19:12:56.805Z,5.60
2023-10-23T19:15:02.605Z,5.80
2023-10-23T19:17:18.812Z,5.90
2023-10-23T19:19:32.372Z,5.90
2023-10-23T19:21:39.345Z,6.20
2023-10-23T19:23:47.512Z,6.40
2023-10-23T19:25:56.155Z,6.40
2023-10-23T19:28:02.297Z,6.70
2023-10-23T19:30:12.382Z,6.70
2023-10-23T19:32:21.487Z,7.50
2023-10-23T19:34:30.915Z,7.70
2023-10-23T19:36:39.333Z,7.80
2023-10-23T19:38:46.916Z,7.20
2023-10-23T19:40:59.215Z,7.50
2023-10-23T19:43:14.052Z,7.50
2023-10-23T19:45:23.229Z,10.90
2023-10-23T19:47:30.607Z,7.60
2023-10-23T19:49:39.408Z,7.40
2023-10-23T19:51:46.910Z,6.50
2023-10-23T19:53:55.407Z,7.20
2023-10-23T19:56:07.042Z,6.90
2023-10-23T19:58:16.543Z,7.50
2023-10-23T20:00:23.214Z,7.50
2023-10-23T20:02:29.224Z,7.60
2023-10-23T20:04:35.130Z,6.80
2023-10-23T20:06:41.099Z,7.00
2023-10-23T20:08:46.813Z,6.50
2023-10-23T20:10:53.443Z,6.20
2023-10-23T20:12:59.443Z,6.80
2023-10-23T20:15:05.674Z,6.80
2023-10-23T20:17:11.869Z,7.00
2023-10-23T20:19:19.932Z,6.60
2023-10-23T20:21:25.063Z,7.20
2023-10-23T20:23:33.347Z,6.40
2023-10-23T20:25:38.272Z,6.40
2023-10-23T20:27:45.972Z,6.50
2023-10-23T20:29:50.815Z,6.70
2023-10-23T20:31:57.246Z,6.90
2023-10-23T20:34:02.130Z,6.70
2023-10-23T20:36:08.205Z,6.80
2023-10-23T20:38:13.002Z,7.00
2023-10-23T20:40:17.886Z,6.80
2023-10-23T20:42:22.820Z,7.00
2023-10-23T20:44:27.565Z,6.90
2023-10-23T20:46:37.041Z,7.20
2023-10-23T20:48:42.004Z,7.10
2023-10-23T20:50:46.793Z,6.90
2023-10-23T20:52:54.226Z,7.50
2023-10-23T20:55:02.710Z,7.40
2023-10-23T20:57:07.904Z,6.40
2023-10-23T20:59:12.919Z,7.20
2023-10-23T21:01:17.906Z,7.40
2023-10-23T21:03:22.876Z,7.20
2023-10-23T21:05:27.630Z,7.10
2023-10-23T21:07:32.372Z,7.30
2023-10-23T21:09:37.492Z,7.20
2023-10-23T21:11:42.349Z,7.30
2023-10-23T21:13:48.574Z,7.40
2023-10-23T21:15:56.515Z,7.00
2023-10-23T21:18:01.219Z,7.00
2023-10-23T21:20:07.691Z,7.00
2023-10-23T21:22:12.572Z,6.50
2023-10-23T21:24:17.984Z,6.60
2023-10-23T21:26:22.683Z,7.10
2023-10-23T21:28:27.438Z,7.30
2023-10-23T21:30:32.190Z,7.30
2023-10-23T21:32:36.899Z,6.80
2023-10-23T21:34:44.760Z,6.90
2023-10-23T21:36:49.603Z,7.30
2023-10-23T21:38:54.298Z,7.30
2023-10-23T21:40:58.963Z,7.70
2023-10-23T21:43:03.666Z,6.90
2023-10-23T21:45:09.835Z,7.00
2023-10-23T21:47:15.018Z,7.60
2023-10-23T21:49:19.952Z,7.10
2023-10-23T21:51:24.714Z,7.30
2023-10-23T21:53:30.741Z,7.30
2023-10-23T21:55:37.107Z,7.20
2023-10-23T21:57:43.122Z,7.50
2023-10-23T21:59:48.708Z,7.70
2023-10-23T22:01:54.570Z,7.80
2023-10-23T22:04:00.811Z,7.30
2023-10-23T22:06:06.722Z,7.20
2023-10-23T22:08:12.636Z,7.50
2023-10-23T22:10:18.959Z,7.60
2023-10-23T22:12:24.547Z,6.80
2023-10-23T22:14:30.652Z,7.20
2023-10-23T22:16:35.682Z,7.20
2023-10-23T22:18:42.116Z,7.00
2023-10-23T22:20:46.846Z,6.60
2023-10-23T22:22:51.543Z,7.00
2023-10-23T22:24:56.304Z,7.30
2023-10-23T22:27:01.154Z,6.90
2023-10-23T22:29:05.967Z,6.20
2023-10-23T22:31:11.115Z,7.10
2023-10-23T22:33:15.896Z,6.60
2023-10-23T22:35:21.065Z,7.60
2023-10-23T22:38:00.943Z,6.70
2023-10-23T22:39:50.500Z,6.50
2023-10-23T22:41:55.270Z,6.30
2023-10-23T22:44:00.134Z,6.30
2023-10-23T22:46:04.998Z,6.80
2023-10-23T22:48:10.288Z,6.50
2023-10-23T22:50:16.785Z,6.40
2023-10-23T22:52:23.955Z,6.10
2023-10-23T22:54:31.587Z,6.10
2023-10-23T22:56:39.802Z,6.20
2023-10-23T22:58:45.681Z,6.40
2023-10-23T23:00:51.160Z,6.40
2023-10-23T23:02:58.166Z,6.00
2023-10-23T23:05:03.621Z,6.30
2023-10-23T23:07:10.673Z,6.40
2023-10-23T23:09:16.454Z,6.20
2023-10-23T23:11:22.047Z,6.50
2023-10-23T23:13:27.680Z,6.30
2023-10-23T23:15:33.459Z,6.00
2023-10-23T23:17:40.342Z,6.00
2023-10-23T23:19:49.700Z,5.90
2023-10-23T23:21:57.877Z,6.40
2023-10-23T23:24:02.904Z,6.40
2023-10-23T23:26:08.329Z,6.20
2023-10-23T23:28:13.116Z,6.00
2023-10-23T23:30:18.507Z,6.20
2023-10-23T23:32:23.385Z,6.00
2023-10-23T23:34:28.267Z,5.90
2023-10-23T23:36:32.958Z,6.20
2023-10-23T23:38:38.637Z,6.10
2023-10-23T23:40:43.430Z,6.20
2023-10-23T23:42:48.161Z,6.20
2023-10-23T23:44:52.874Z,5.90
2023-10-23T23:46:57.699Z,6.00
2023-10-23T23:49:02.461Z,5.90
2023-10-23T23:51:07.127Z,6.20
2023-10-23T23:53:11.831Z,6.20
2023-10-23T23:55:16.964Z,6.20
2023-10-23T23:57:21.621Z,6.30
2023-10-23T23:59:26.296Z,5.80
